sensor_id;sensor_type;location;lat;lon;timestamp;temperature;humidity
2751;DHT22;1383;48.362;10.908;2022-12-17T00:00:48;-0.90;62.70
2751;DHT22;1383;48.362;10.908;2022-12-17T00:03:33;-0.90;63.20
2751;DHT22;1383;48.362;10.908;2022-12-17T00:06:22;-0.90;64.00
2751;DHT22;1383;48.362;10.908;2022-12-17T00:09:08;-0.90;63.90
2751;DHT22;1383;48.362;10.908;2022-12-17T00:11:53;-0.90;63.60
2751;DHT22;1383;48.362;10.908;2022-12-17T00:14:46;-0.90;63.40
2751;DHT22;1383;48.362;10.908;2022-12-17T00:17:31;-0.90;63.40
2751;DHT22;1383;48.362;10.908;2022-12-17T00:20:17;-0.90;63.00
2751;DHT22;1383;48.362;10.908;2022-12-17T00:23:04;-1.00;62.80
2751;DHT22;1383;48.362;10.908;2022-12-17T00:25:50;-1.10;62.60
2751;DHT22;1383;48.362;10.908;2022-12-17T00:28:35;-1.10;62.70
2751;DHT22;1383;48.362;10.908;2022-12-17T00:31:21;-1.20;62.10
2751;DHT22;1383;48.362;10.908;2022-12-17T00:34:07;-1.30;61.30
2751;DHT22;1383;48.362;10.908;2022-12-17T00:36:52;-1.30;61.20
2751;DHT22;1383;48.362;10.908;2022-12-17T00:39:38;-1.30;61.10
2751;DHT22;1383;48.362;10.908;2022-12-17T00:42:25;-1.30;60.60
2751;DHT22;1383;48.362;10.908;2022-12-17T00:45:10;-1.30;60.30
2751;DHT22;1383;48.362;10.908;2022-12-17T00:47:55;-1.50;58.60
2751;DHT22;1383;48.362;10.908;2022-12-17T00:50:41;-1.50;58.50
2751;DHT22;1383;48.362;10.908;2022-12-17T00:53:26;-1.50;58.30
2751;DHT22;1383;48.362;10.908;2022-12-17T00:56:12;-1.60;58.40
2751;DHT22;1383;48.362;10.908;2022-12-17T00:58:57;-1.60;59.00
2751;DHT22;1383;48.362;10.908;2022-12-17T01:01:43;-1.70;59.40
2751;DHT22;1383;48.362;10.908;2022-12-17T01:04:39;-1.70;60.00
2751;DHT22;1383;48.362;10.908;2022-12-17T01:07:24;-1.60;60.20
2751;DHT22;1383;48.362;10.908;2022-12-17T01:10:10;-1.60;60.30
2751;DHT22;1383;48.362;10.908;2022-12-17T01:12:55;-1.60;60.60
2751;DHT22;1383;48.362;10.908;2022-12-17T01:15:41;-1.60;61.00
2751;DHT22;1383;48.362;10.908;2022-12-17T01:18:26;-1.50;61.40
2751;DHT22;1383;48.362;10.908;2022-12-17T01:21:12;-1.50;61.30
2751;DHT22;1383;48.362;10.908;2022-12-17T01:23:57;-1.50;61.20
2751;DHT22;1383;48.362;10.908;2022-12-17T01:26:45;-1.50;61.40
2751;DHT22;1383;48.362;10.908;2022-12-17T01:29:30;-1.50;61.50
2751;DHT22;1383;48.362;10.908;2022-12-17T01:32:16;-1.50;61.00
2751;DHT22;1383;48.362;10.908;2022-12-17T01:35:02;-1.50;60.60
2751;DHT22;1383;48.362;10.908;2022-12-17T01:37:47;-1.40;60.50
2751;DHT22;1383;48.362;10.908;2022-12-17T01:40:52;-1.40;60.80
2751;DHT22;1383;48.362;10.908;2022-12-17T01:43:38;-1.40;60.70
2751;DHT22;1383;48.362;10.908;2022-12-17T01:46:25;-1.40;60.80
2751;DHT22;1383;48.362;10.908;2022-12-17T01:49:11;-1.50;60.40
2751;DHT22;1383;48.362;10.908;2022-12-17T01:51:57;-1.50;60.70
2751;DHT22;1383;48.362;10.908;2022-12-17T01:54:44;-1.50;60.40
2751;DHT22;1383;48.362;10.908;2022-12-17T01:57:30;-1.50;60.40
2751;DHT22;1383;48.362;10.908;2022-12-17T02:00:17;-1.60;60.10
2751;DHT22;1383;48.362;10.908;2022-12-17T02:03:03;-1.70;60.10
2751;DHT22;1383;48.362;10.908;2022-12-17T02:05:51;-1.80;59.60
2751;DHT22;1383;48.362;10.908;2022-12-17T02:17:42;-2.10;61.00
2751;DHT22;1383;48.362;10.908;2022-12-17T02:20:42;-2.20;61.50
2751;DHT22;1383;48.362;10.908;2022-12-17T02:26:39;-2.20;62.30
2751;DHT22;1383;48.362;10.908;2022-12-17T02:29:29;-2.30;62.50
2751;DHT22;1383;48.362;10.908;2022-12-17T02:32:17;-2.30;62.70
2751;DHT22;1383;48.362;10.908;2022-12-17T02:35:17;-2.40;62.60
2751;DHT22;1383;48.362;10.908;2022-12-17T02:38:26;-2.50;62.60
2751;DHT22;1383;48.362;10.908;2022-12-17T02:41:37;-2.50;62.70
2751;DHT22;1383;48.362;10.908;2022-12-17T02:44:25;-2.60;62.80
2751;DHT22;1383;48.362;10.908;2022-12-17T02:47:10;-2.70;62.80
2751;DHT22;1383;48.362;10.908;2022-12-17T02:49:57;-2.70;62.80
2751;DHT22;1383;48.362;10.908;2022-12-17T02:52:45;-2.70;63.10
2751;DHT22;1383;48.362;10.908;2022-12-17T02:55:32;-2.70;63.20
2751;DHT22;1383;48.362;10.908;2022-12-17T02:58:18;-2.70;63.10
2751;DHT22;1383;48.362;10.908;2022-12-17T03:01:03;-2.80;62.90
2751;DHT22;1383;48.362;10.908;2022-12-17T03:03:49;-2.80;62.40
2751;DHT22;1383;48.362;10.908;2022-12-17T03:06:34;-2.80;62.70
2751;DHT22;1383;48.362;10.908;2022-12-17T03:09:20;-2.80;63.00
2751;DHT22;1383;48.362;10.908;2022-12-17T03:12:05;-2.80;63.40
2751;DHT22;1383;48.362;10.908;2022-12-17T03:14:50;-2.80;63.20
2751;DHT22;1383;48.362;10.908;2022-12-17T03:17:36;-2.80;63.00
2751;DHT22;1383;48.362;10.908;2022-12-17T03:20:21;-2.80;63.00
2751;DHT22;1383;48.362;10.908;2022-12-17T03:23:09;-2.90;62.90
2751;DHT22;1383;48.362;10.908;2022-12-17T03:25:59;-3.00;63.00
2751;DHT22;1383;48.362;10.908;2022-12-17T03:28:44;-3.00;63.20
2751;DHT22;1383;48.362;10.908;2022-12-17T03:31:30;-3.10;63.10
2751;DHT22;1383;48.362;10.908;2022-12-17T03:34:15;-3.10;63.10
2751;DHT22;1383;48.362;10.908;2022-12-17T03:37:00;-3.10;63.20
2751;DHT22;1383;48.362;10.908;2022-12-17T03:39:46;-3.10;63.30
2751;DHT22;1383;48.362;10.908;2022-12-17T03:42:32;-3.10;63.10
2751;DHT22;1383;48.362;10.908;2022-12-17T03:45:17;-3.20;62.90
2751;DHT22;1383;48.362;10.908;2022-12-17T03:50:50;-3.20;62.70
2751;DHT22;1383;48.362;10.908;2022-12-17T03:53:36;-3.20;62.60
2751;DHT22;1383;48.362;10.908;2022-12-17T03:56:22;-3.20;62.70
2751;DHT22;1383;48.362;10.908;2022-12-17T03:59:08;-3.20;62.30
2751;DHT22;1383;48.362;10.908;2022-12-17T04:01:53;-3.20;62.20
2751;DHT22;1383;48.362;10.908;2022-12-17T04:04:39;-3.20;62.30
2751;DHT22;1383;48.362;10.908;2022-12-17T04:07:24;-3.20;62.50
2751;DHT22;1383;48.362;10.908;2022-12-17T04:10:10;-3.20;62.60
2751;DHT22;1383;48.362;10.908;2022-12-17T04:12:55;-3.30;62.80
2751;DHT22;1383;48.362;10.908;2022-12-17T04:15:42;-3.20;62.80
2751;DHT22;1383;48.362;10.908;2022-12-17T04:18:27;-3.20;62.90
2751;DHT22;1383;48.362;10.908;2022-12-17T04:21:13;-3.20;63.10
2751;DHT22;1383;48.362;10.908;2022-12-17T04:23:58;-3.30;63.40
2751;DHT22;1383;48.362;10.908;2022-12-17T04:26:44;-3.20;63.40
2751;DHT22;1383;48.362;10.908;2022-12-17T04:29:29;-3.20;63.60
2751;DHT22;1383;48.362;10.908;2022-12-17T04:32:14;-3.30;62.80
2751;DHT22;1383;48.362;10.908;2022-12-17T04:35:01;-3.30;62.50
2751;DHT22;1383;48.362;10.908;2022-12-17T04:37:46;-3.30;63.00
2751;DHT22;1383;48.362;10.908;2022-12-17T04:40:32;-3.30;63.00
2751;DHT22;1383;48.362;10.908;2022-12-17T04:43:17;-3.30;63.00
2751;DHT22;1383;48.362;10.908;2022-12-17T04:46:03;-3.30;63.00
2751;DHT22;1383;48.362;10.908;2022-12-17T04:48:49;-3.30;63.00
2751;DHT22;1383;48.362;10.908;2022-12-17T04:51:34;-3.30;62.70
2751;DHT22;1383;48.362;10.908;2022-12-17T04:54:20;-3.30;63.10
2751;DHT22;1383;48.362;10.908;2022-12-17T04:57:05;-3.30;62.30
2751;DHT22;1383;48.362;10.908;2022-12-17T04:59:52;-3.20;62.20
2751;DHT22;1383;48.362;10.908;2022-12-17T05:02:38;-3.20;62.30
2751;DHT22;1383;48.362;10.908;2022-12-17T05:05:23;-3.10;60.70
2751;DHT22;1383;48.362;10.908;2022-12-17T05:08:09;-3.10;60.50
2751;DHT22;1383;48.362;10.908;2022-12-17T05:10:54;-3.20;60.30
2751;DHT22;1383;48.362;10.908;2022-12-17T05:13:40;-3.10;60.60
2751;DHT22;1383;48.362;10.908;2022-12-17T05:16:25;-3.10;60.00
2751;DHT22;1383;48.362;10.908;2022-12-17T05:19:11;-3.10;60.40
2751;DHT22;1383;48.362;10.908;2022-12-17T05:21:56;-3.10;60.90
2751;DHT22;1383;48.362;10.908;2022-12-17T05:24:41;-3.10;60.50
2751;DHT22;1383;48.362;10.908;2022-12-17T05:27:27;-3.20;60.00
2751;DHT22;1383;48.362;10.908;2022-12-17T05:30:12;-3.10;60.20
2751;DHT22;1383;48.362;10.908;2022-12-17T05:33:02;-3.10;60.70
2751;DHT22;1383;48.362;10.908;2022-12-17T05:35:47;-3.10;60.40
2751;DHT22;1383;48.362;10.908;2022-12-17T05:38:33;-3.20;60.40
2751;DHT22;1383;48.362;10.908;2022-12-17T05:41:18;-3.20;60.40
2751;DHT22;1383;48.362;10.908;2022-12-17T05:44:04;-3.30;59.80
2751;DHT22;1383;48.362;10.908;2022-12-17T05:46:49;-3.40;59.80
2751;DHT22;1383;48.362;10.908;2022-12-17T05:49:35;-3.40;60.70
2751;DHT22;1383;48.362;10.908;2022-12-17T05:52:22;-3.50;60.90
2751;DHT22;1383;48.362;10.908;2022-12-17T05:55:07;-3.40;61.50
2751;DHT22;1383;48.362;10.908;2022-12-17T05:58:04;-3.40;61.30
2751;DHT22;1383;48.362;10.908;2022-12-17T06:00:55;-3.60;61.00
2751;DHT22;1383;48.362;10.908;2022-12-17T06:03:40;-3.60;61.40
2751;DHT22;1383;48.362;10.908;2022-12-17T06:06:26;-3.70;61.50
2751;DHT22;1383;48.362;10.908;2022-12-17T06:09:11;-3.80;62.00
2751;DHT22;1383;48.362;10.908;2022-12-17T06:11:57;-3.80;62.80
2751;DHT22;1383;48.362;10.908;2022-12-17T06:14:42;-3.70;63.10
2751;DHT22;1383;48.362;10.908;2022-12-17T06:17:28;-3.80;63.10
2751;DHT22;1383;48.362;10.908;2022-12-17T06:20:13;-3.80;63.60
2751;DHT22;1383;48.362;10.908;2022-12-17T06:23:03;-3.80;63.50
2751;DHT22;1383;48.362;10.908;2022-12-17T06:25:51;-3.80;64.10
2751;DHT22;1383;48.362;10.908;2022-12-17T06:28:38;-3.80;64.00
2751;DHT22;1383;48.362;10.908;2022-12-17T06:31:24;-3.80;63.60
2751;DHT22;1383;48.362;10.908;2022-12-17T06:34:10;-3.80;63.40
2751;DHT22;1383;48.362;10.908;2022-12-17T06:36:56;-3.80;63.30
2751;DHT22;1383;48.362;10.908;2022-12-17T06:39:41;-3.90;63.20
2751;DHT22;1383;48.362;10.908;2022-12-17T06:42:27;-3.90;63.20
2751;DHT22;1383;48.362;10.908;2022-12-17T06:45:13;-3.80;63.30
2751;DHT22;1383;48.362;10.908;2022-12-17T06:48:06;-3.80;62.80
2751;DHT22;1383;48.362;10.908;2022-12-17T06:50:54;-3.80;62.80
2751;DHT22;1383;48.362;10.908;2022-12-17T06:53:39;-3.80;62.70
2751;DHT22;1383;48.362;10.908;2022-12-17T06:56:26;-3.90;62.40
2751;DHT22;1383;48.362;10.908;2022-12-17T06:59:11;-3.90;62.70
2751;DHT22;1383;48.362;10.908;2022-12-17T07:01:56;-3.90;62.70
2751;DHT22;1383;48.362;10.908;2022-12-17T07:04:42;-3.90;62.50
2751;DHT22;1383;48.362;10.908;2022-12-17T07:07:27;-3.90;62.60
2751;DHT22;1383;48.362;10.908;2022-12-17T07:10:13;-4.00;62.60
2751;DHT22;1383;48.362;10.908;2022-12-17T07:13:08;-4.00;62.60
2751;DHT22;1383;48.362;10.908;2022-12-17T07:15:54;-4.00;62.60
2751;DHT22;1383;48.362;10.908;2022-12-17T07:18:40;-3.90;62.70
2751;DHT22;1383;48.362;10.908;2022-12-17T07:21:25;-3.80;62.80
2751;DHT22;1383;48.362;10.908;2022-12-17T07:24:11;-3.80;63.10
2751;DHT22;1383;48.362;10.908;2022-12-17T07:26:59;-3.80;63.00
2751;DHT22;1383;48.362;10.908;2022-12-17T07:29:50;-3.80;62.50
2751;DHT22;1383;48.362;10.908;2022-12-17T07:32:38;-3.70;62.30
2751;DHT22;1383;48.362;10.908;2022-12-17T07:35:23;-3.70;61.90
2751;DHT22;1383;48.362;10.908;2022-12-17T07:38:09;-3.70;61.80
2751;DHT22;1383;48.362;10.908;2022-12-17T07:40:58;-3.60;61.70
2751;DHT22;1383;48.362;10.908;2022-12-17T07:43:43;-3.50;61.50
2751;DHT22;1383;48.362;10.908;2022-12-17T07:46:29;-3.50;60.80
2751;DHT22;1383;48.362;10.908;2022-12-17T07:49:14;-3.40;60.90
2751;DHT22;1383;48.362;10.908;2022-12-17T07:52:00;-3.40;60.30
2751;DHT22;1383;48.362;10.908;2022-12-17T07:54:45;-3.40;59.50
2751;DHT22;1383;48.362;10.908;2022-12-17T07:57:31;-3.30;59.40
2751;DHT22;1383;48.362;10.908;2022-12-17T08:00:17;-3.30;59.00
2751;DHT22;1383;48.362;10.908;2022-12-17T08:03:03;-3.30;59.40
2751;DHT22;1383;48.362;10.908;2022-12-17T08:05:49;-3.30;59.70
2751;DHT22;1383;48.362;10.908;2022-12-17T08:08:34;-3.30;59.00
2751;DHT22;1383;48.362;10.908;2022-12-17T08:11:20;-3.30;58.10
2751;DHT22;1383;48.362;10.908;2022-12-17T08:14:06;-3.30;57.60
2751;DHT22;1383;48.362;10.908;2022-12-17T08:16:51;-3.30;56.90
2751;DHT22;1383;48.362;10.908;2022-12-17T08:19:37;-3.30;56.40
2751;DHT22;1383;48.362;10.908;2022-12-17T08:22:22;-3.40;55.70
2751;DHT22;1383;48.362;10.908;2022-12-17T08:25:08;-3.50;56.10
2751;DHT22;1383;48.362;10.908;2022-12-17T08:27:58;-3.50;57.00
2751;DHT22;1383;48.362;10.908;2022-12-17T08:31:03;-3.60;57.00
2751;DHT22;1383;48.362;10.908;2022-12-17T08:33:48;-3.70;57.10
2751;DHT22;1383;48.362;10.908;2022-12-17T08:36:34;-3.60;57.80
2751;DHT22;1383;48.362;10.908;2022-12-17T08:39:19;-3.60;57.30
2751;DHT22;1383;48.362;10.908;2022-12-17T08:42:05;-3.60;57.00
2751;DHT22;1383;48.362;10.908;2022-12-17T08:44:53;-3.70;56.90
2751;DHT22;1383;48.362;10.908;2022-12-17T08:47:39;-3.70;57.40
2751;DHT22;1383;48.362;10.908;2022-12-17T08:50:29;-3.60;57.60
2751;DHT22;1383;48.362;10.908;2022-12-17T08:53:15;-3.50;57.80
2751;DHT22;1383;48.362;10.908;2022-12-17T08:56:01;-3.50;57.90
2751;DHT22;1383;48.362;10.908;2022-12-17T08:58:46;-3.50;57.90
2751;DHT22;1383;48.362;10.908;2022-12-17T09:01:31;-3.50;57.30
2751;DHT22;1383;48.362;10.908;2022-12-17T09:04:17;-3.50;57.10
2751;DHT22;1383;48.362;10.908;2022-12-17T09:07:03;-3.50;57.40
2751;DHT22;1383;48.362;10.908;2022-12-17T09:09:48;-3.40;57.60
2751;DHT22;1383;48.362;10.908;2022-12-17T09:12:34;-3.40;58.00
2751;DHT22;1383;48.362;10.908;2022-12-17T09:15:19;-3.40;58.60
2751;DHT22;1383;48.362;10.908;2022-12-17T09:18:05;-3.30;58.90
2751;DHT22;1383;48.362;10.908;2022-12-17T09:20:52;-3.40;58.50
2751;DHT22;1383;48.362;10.908;2022-12-17T09:23:37;-3.40;58.90
2751;DHT22;1383;48.362;10.908;2022-12-17T09:26:23;-3.50;59.00
2751;DHT22;1383;48.362;10.908;2022-12-17T09:29:08;-3.40;59.60
2751;DHT22;1383;48.362;10.908;2022-12-17T09:31:54;-3.40;59.70
2751;DHT22;1383;48.362;10.908;2022-12-17T09:34:39;-3.30;60.00
2751;DHT22;1383;48.362;10.908;2022-12-17T09:37:25;-3.20;60.10
2751;DHT22;1383;48.362;10.908;2022-12-17T09:40:17;-3.00;60.20
2751;DHT22;1383;48.362;10.908;2022-12-17T09:43:29;-2.90;59.30
2751;DHT22;1383;48.362;10.908;2022-12-17T09:46:42;-2.70;59.10
2751;DHT22;1383;48.362;10.908;2022-12-17T09:49:29;-2.40;58.50
2751;DHT22;1383;48.362;10.908;2022-12-17T09:52:31;-2.30;57.30
2751;DHT22;1383;48.362;10.908;2022-12-17T09:55:22;-2.10;55.90
2751;DHT22;1383;48.362;10.908;2022-12-17T09:58:20;-1.90;54.60
2751;DHT22;1383;48.362;10.908;2022-12-17T10:01:18;-1.70;55.00
2751;DHT22;1383;48.362;10.908;2022-12-17T10:04:09;-1.40;53.00
2751;DHT22;1383;48.362;10.908;2022-12-17T10:06:56;-1.10;52.60
2751;DHT22;1383;48.362;10.908;2022-12-17T10:09:50;-1.20;49.20
2751;DHT22;1383;48.362;10.908;2022-12-17T10:12:36;-1.10;50.10
2751;DHT22;1383;48.362;10.908;2022-12-17T10:15:21;-0.90;50.20
2751;DHT22;1383;48.362;10.908;2022-12-17T10:18:09;-0.70;49.90
2751;DHT22;1383;48.362;10.908;2022-12-17T10:21:01;-0.50;49.20
2751;DHT22;1383;48.362;10.908;2022-12-17T10:24:06;-0.40;48.10
2751;DHT22;1383;48.362;10.908;2022-12-17T10:26:52;-0.50;47.80
2751;DHT22;1383;48.362;10.908;2022-12-17T10:29:40;-0.60;47.50
2751;DHT22;1383;48.362;10.908;2022-12-17T10:32:26;-0.90;47.70
2751;DHT22;1383;48.362;10.908;2022-12-17T10:35:24;-1.00;49.40
2751;DHT22;1383;48.362;10.908;2022-12-17T10:38:11;-1.10;49.40
2751;DHT22;1383;48.362;10.908;2022-12-17T10:40:58;-1.20;49.90
2751;DHT22;1383;48.362;10.908;2022-12-17T10:43:44;-1.20;51.30
2751;DHT22;1383;48.362;10.908;2022-12-17T10:46:31;-1.10;50.60
2751;DHT22;1383;48.362;10.908;2022-12-17T10:49:20;-1.20;50.60
2751;DHT22;1383;48.362;10.908;2022-12-17T10:52:25;-1.10;51.00
2751;DHT22;1383;48.362;10.908;2022-12-17T10:55:44;-1.20;50.70
2751;DHT22;1383;48.362;10.908;2022-12-17T10:58:31;-1.70;50.80
2751;DHT22;1383;48.362;10.908;2022-12-17T11:01:21;-1.60;52.30
2751;DHT22;1383;48.362;10.908;2022-12-17T11:04:37;-1.50;52.40
2751;DHT22;1383;48.362;10.908;2022-12-17T11:07:27;-1.30;52.50
2751;DHT22;1383;48.362;10.908;2022-12-17T11:10:17;-1.20;52.30
2751;DHT22;1383;48.362;10.908;2022-12-17T11:14:00;-1.20;52.30
2751;DHT22;1383;48.362;10.908;2022-12-17T11:16:26;-1.20;52.70
2751;DHT22;1383;48.362;10.908;2022-12-17T11:19:25;-1.30;52.20
2751;DHT22;1383;48.362;10.908;2022-12-17T11:28:24;-1.20;53.00
2751;DHT22;1383;48.362;10.908;2022-12-17T11:34:09;-1.10;54.10
2751;DHT22;1383;48.362;10.908;2022-12-17T11:37:20;-1.10;53.70
2751;DHT22;1383;48.362;10.908;2022-12-17T11:40:31;-1.10;53.70
2751;DHT22;1383;48.362;10.908;2022-12-17T11:46:31;-1.00;54.10
2751;DHT22;1383;48.362;10.908;2022-12-17T11:52:43;-1.10;55.40
2751;DHT22;1383;48.362;10.908;2022-12-17T11:56:25;-1.30;54.80
2751;DHT22;1383;48.362;10.908;2022-12-17T11:58:52;-1.50;55.10
2751;DHT22;1383;48.362;10.908;2022-12-17T12:01:54;-1.30;55.70
2751;DHT22;1383;48.362;10.908;2022-12-17T12:08:30;-1.10;54.90
2751;DHT22;1383;48.362;10.908;2022-12-17T12:11:20;-1.20;54.20
2751;DHT22;1383;48.362;10.908;2022-12-17T12:26:27;-0.90;55.60
2751;DHT22;1383;48.362;10.908;2022-12-17T12:35:15;-1.20;55.80
2751;DHT22;1383;48.362;10.908;2022-12-17T12:38:02;-1.20;56.20
2751;DHT22;1383;48.362;10.908;2022-12-17T12:41:02;-1.40;56.50
2751;DHT22;1383;48.362;10.908;2022-12-17T12:43:54;-1.40;57.10
2751;DHT22;1383;48.362;10.908;2022-12-17T12:46:52;-1.50;57.60
2751;DHT22;1383;48.362;10.908;2022-12-17T12:49:55;-1.70;57.60
2751;DHT22;1383;48.362;10.908;2022-12-17T12:52:45;-1.80;58.30
2751;DHT22;1383;48.362;10.908;2022-12-17T12:55:38;-1.70;59.20
2751;DHT22;1383;48.362;10.908;2022-12-17T12:58:28;-1.70;59.00
2751;DHT22;1383;48.362;10.908;2022-12-17T13:01:13;-1.70;58.80
2751;DHT22;1383;48.362;10.908;2022-12-17T13:04:01;-1.80;58.40
2751;DHT22;1383;48.362;10.908;2022-12-17T13:06:59;-1.70;59.00
2751;DHT22;1383;48.362;10.908;2022-12-17T13:19:44;-1.80;57.40
2751;DHT22;1383;48.362;10.908;2022-12-17T13:24:52;-1.80;56.20
2751;DHT22;1383;48.362;10.908;2022-12-17T13:27:39;-1.80;56.00
2751;DHT22;1383;48.362;10.908;2022-12-17T13:38:20;-1.80;53.60
2751;DHT22;1383;48.362;10.908;2022-12-17T13:41:12;-1.90;53.20
2751;DHT22;1383;48.362;10.908;2022-12-17T13:43:54;-2.00;52.80
2751;DHT22;1383;48.362;10.908;2022-12-17T13:46:45;-2.00;53.30
2751;DHT22;1383;48.362;10.908;2022-12-17T13:49:25;-1.90;54.70
2751;DHT22;1383;48.362;10.908;2022-12-17T13:52:14;-1.90;55.20
2751;DHT22;1383;48.362;10.908;2022-12-17T13:54:43;-1.90;55.40
2751;DHT22;1383;48.362;10.908;2022-12-17T13:57:15;-1.90;55.00
2751;DHT22;1383;48.362;10.908;2022-12-17T13:59:51;-1.90;55.30
2751;DHT22;1383;48.362;10.908;2022-12-17T14:02:28;-2.00;55.70
2751;DHT22;1383;48.362;10.908;2022-12-17T14:04:58;-2.00;56.60
2751;DHT22;1383;48.362;10.908;2022-12-17T14:07:36;-2.00;56.90
2751;DHT22;1383;48.362;10.908;2022-12-17T14:10:04;-2.00;57.70
2751;DHT22;1383;48.362;10.908;2022-12-17T14:12:32;-2.00;58.10
2751;DHT22;1383;48.362;10.908;2022-12-17T14:15:04;-2.10;59.10
2751;DHT22;1383;48.362;10.908;2022-12-17T14:17:41;-2.10;59.60
2751;DHT22;1383;48.362;10.908;2022-12-17T14:20:33;-2.10;60.00
2751;DHT22;1383;48.362;10.908;2022-12-17T14:23:19;-2.00;60.30
2751;DHT22;1383;48.362;10.908;2022-12-17T14:25:47;-2.00;60.40
2751;DHT22;1383;48.362;10.908;2022-12-17T14:28:22;-1.90;61.50
2751;DHT22;1383;48.362;10.908;2022-12-17T14:30:50;-1.90;61.20
2751;DHT22;1383;48.362;10.908;2022-12-17T14:33:37;-1.90;60.90
2751;DHT22;1383;48.362;10.908;2022-12-17T14:36:20;-1.90;60.70
2751;DHT22;1383;48.362;10.908;2022-12-17T14:39:00;-1.90;60.50
2751;DHT22;1383;48.362;10.908;2022-12-17T14:41:28;-1.90;60.70
2751;DHT22;1383;48.362;10.908;2022-12-17T14:44:25;-1.90;60.40
2751;DHT22;1383;48.362;10.908;2022-12-17T14:47:18;-1.90;61.40
2751;DHT22;1383;48.362;10.908;2022-12-17T14:50:24;-1.90;61.70
2751;DHT22;1383;48.362;10.908;2022-12-17T14:52:53;-1.90;62.10
2751;DHT22;1383;48.362;10.908;2022-12-17T14:55:58;-1.90;62.70
2751;DHT22;1383;48.362;10.908;2022-12-17T14:58:26;-1.90;62.80
2751;DHT22;1383;48.362;10.908;2022-12-17T15:01:03;-1.90;62.50
2751;DHT22;1383;48.362;10.908;2022-12-17T15:03:36;-1.80;62.20
2751;DHT22;1383;48.362;10.908;2022-12-17T15:06:06;-1.90;61.70
2751;DHT22;1383;48.362;10.908;2022-12-17T15:08:47;-1.90;61.80
2751;DHT22;1383;48.362;10.908;2022-12-17T15:11:18;-1.90;62.20
2751;DHT22;1383;48.362;10.908;2022-12-17T15:13:46;-2.00;62.00
2751;DHT22;1383;48.362;10.908;2022-12-17T15:16:20;-2.00;62.30
2751;DHT22;1383;48.362;10.908;2022-12-17T15:18:47;-2.10;62.30
2751;DHT22;1383;48.362;10.908;2022-12-17T15:21:14;-2.00;62.60
2751;DHT22;1383;48.362;10.908;2022-12-17T15:23:43;-2.10;62.40
2751;DHT22;1383;48.362;10.908;2022-12-17T15:26:11;-2.10;62.30
2751;DHT22;1383;48.362;10.908;2022-12-17T15:28:40;-2.10;62.30
2751;DHT22;1383;48.362;10.908;2022-12-17T15:31:13;-2.10;62.50
2751;DHT22;1383;48.362;10.908;2022-12-17T15:33:40;-2.20;62.80
2751;DHT22;1383;48.362;10.908;2022-12-17T15:36:09;-2.20;63.00
2751;DHT22;1383;48.362;10.908;2022-12-17T15:38:37;-2.20;63.10
2751;DHT22;1383;48.362;10.908;2022-12-17T15:41:05;-2.20;63.30
2751;DHT22;1383;48.362;10.908;2022-12-17T15:43:52;-2.30;63.20
2751;DHT22;1383;48.362;10.908;2022-12-17T15:46:19;-2.30;63.40
2751;DHT22;1383;48.362;10.908;2022-12-17T15:48:46;-2.30;63.40
2751;DHT22;1383;48.362;10.908;2022-12-17T15:51:16;-2.30;63.60
2751;DHT22;1383;48.362;10.908;2022-12-17T15:53:46;-2.40;63.50
2751;DHT22;1383;48.362;10.908;2022-12-17T15:56:23;-2.40;64.00
2751;DHT22;1383;48.362;10.908;2022-12-17T15:58:50;-2.50;63.50
2751;DHT22;1383;48.362;10.908;2022-12-17T16:01:18;-2.60;63.90
2751;DHT22;1383;48.362;10.908;2022-12-17T16:03:45;-2.60;64.60
2751;DHT22;1383;48.362;10.908;2022-12-17T16:06:12;-2.70;65.30
2751;DHT22;1383;48.362;10.908;2022-12-17T16:08:39;-2.60;65.50
2751;DHT22;1383;48.362;10.908;2022-12-17T16:11:11;-2.70;65.40
2751;DHT22;1383;48.362;10.908;2022-12-17T16:13:39;-2.80;66.30
2751;DHT22;1383;48.362;10.908;2022-12-17T16:16:06;-2.90;66.50
2751;DHT22;1383;48.362;10.908;2022-12-17T16:18:34;-2.90;66.60
2751;DHT22;1383;48.362;10.908;2022-12-17T16:21:04;-3.00;66.90
2751;DHT22;1383;48.362;10.908;2022-12-17T16:23:31;-3.00;68.00
2751;DHT22;1383;48.362;10.908;2022-12-17T16:26:00;-3.00;67.80
2751;DHT22;1383;48.362;10.908;2022-12-17T16:28:27;-3.10;67.70
2751;DHT22;1383;48.362;10.908;2022-12-17T16:31:03;-3.10;68.50
2751;DHT22;1383;48.362;10.908;2022-12-17T16:33:34;-3.10;68.80
2751;DHT22;1383;48.362;10.908;2022-12-17T16:36:03;-3.10;68.60
2751;DHT22;1383;48.362;10.908;2022-12-17T16:38:30;-3.10;68.90
2751;DHT22;1383;48.362;10.908;2022-12-17T16:40:59;-3.10;68.50
2751;DHT22;1383;48.362;10.908;2022-12-17T16:43:27;-3.20;68.70
2751;DHT22;1383;48.362;10.908;2022-12-17T16:45:57;-3.20;68.70
2751;DHT22;1383;48.362;10.908;2022-12-17T16:48:24;-3.20;68.70
2751;DHT22;1383;48.362;10.908;2022-12-17T16:50:51;-3.20;68.90
2751;DHT22;1383;48.362;10.908;2022-12-17T16:53:18;-3.20;69.10
2751;DHT22;1383;48.362;10.908;2022-12-17T16:55:47;-3.20;69.20
2751;DHT22;1383;48.362;10.908;2022-12-17T16:58:15;-3.30;68.70
2751;DHT22;1383;48.362;10.908;2022-12-17T17:00:42;-3.30;68.70
2751;DHT22;1383;48.362;10.908;2022-12-17T17:03:10;-3.40;69.20
2751;DHT22;1383;48.362;10.908;2022-12-17T17:05:38;-3.40;69.30
2751;DHT22;1383;48.362;10.908;2022-12-17T17:08:05;-3.40;69.50
2751;DHT22;1383;48.362;10.908;2022-12-17T17:10:35;-3.50;69.40
2751;DHT22;1383;48.362;10.908;2022-12-17T17:13:02;-3.40;70.10
2751;DHT22;1383;48.362;10.908;2022-12-17T17:15:29;-3.50;70.20
2751;DHT22;1383;48.362;10.908;2022-12-17T17:17:56;-3.40;70.20
2751;DHT22;1383;48.362;10.908;2022-12-17T17:20:28;-3.50;69.90
2751;DHT22;1383;48.362;10.908;2022-12-17T17:22:58;-3.50;70.70
2751;DHT22;1383;48.362;10.908;2022-12-17T17:25:25;-3.60;69.80
2751;DHT22;1383;48.362;10.908;2022-12-17T17:28:12;-3.60;70.10
2751;DHT22;1383;48.362;10.908;2022-12-17T17:30:39;-3.70;69.70
2751;DHT22;1383;48.362;10.908;2022-12-17T17:33:06;-3.70;69.70
2751;DHT22;1383;48.362;10.908;2022-12-17T17:35:33;-3.70;70.10
2751;DHT22;1383;48.362;10.908;2022-12-17T17:38:00;-3.70;70.20
2751;DHT22;1383;48.362;10.908;2022-12-17T17:40:26;-3.70;70.00
2751;DHT22;1383;48.362;10.908;2022-12-17T17:42:53;-3.80;69.90
2751;DHT22;1383;48.362;10.908;2022-12-17T17:45:20;-3.90;69.70
2751;DHT22;1383;48.362;10.908;2022-12-17T17:47:47;-3.90;69.90
2751;DHT22;1383;48.362;10.908;2022-12-17T17:50:15;-3.90;69.90
2751;DHT22;1383;48.362;10.908;2022-12-17T17:52:42;-3.90;70.00
2751;DHT22;1383;48.362;10.908;2022-12-17T17:55:08;-4.00;69.60
2751;DHT22;1383;48.362;10.908;2022-12-17T17:57:35;-4.10;69.80
2751;DHT22;1383;48.362;10.908;2022-12-17T18:00:02;-4.10;69.90
2751;DHT22;1383;48.362;10.908;2022-12-17T18:02:29;-4.10;69.70
2751;DHT22;1383;48.362;10.908;2022-12-17T18:04:56;-4.20;69.40
2751;DHT22;1383;48.362;10.908;2022-12-17T18:07:23;-4.30;69.40
2751;DHT22;1383;48.362;10.908;2022-12-17T18:09:52;-4.30;69.50
2751;DHT22;1383;48.362;10.908;2022-12-17T18:12:19;-4.30;68.80
2751;DHT22;1383;48.362;10.908;2022-12-17T18:15:05;-4.40;68.80
2751;DHT22;1383;48.362;10.908;2022-12-17T18:17:44;-4.30;69.20
2751;DHT22;1383;48.362;10.908;2022-12-17T18:20:12;-4.30;68.70
2751;DHT22;1383;48.362;10.908;2022-12-17T18:22:39;-4.40;68.30
2751;DHT22;1383;48.362;10.908;2022-12-17T18:25:06;-4.50;68.40
2751;DHT22;1383;48.362;10.908;2022-12-17T18:27:33;-4.60;68.10
2751;DHT22;1383;48.362;10.908;2022-12-17T18:30:00;-4.60;68.50
2751;DHT22;1383;48.362;10.908;2022-12-17T18:32:28;-4.70;67.90
2751;DHT22;1383;48.362;10.908;2022-12-17T18:34:54;-4.80;67.80
2751;DHT22;1383;48.362;10.908;2022-12-17T18:37:21;-4.80;67.60
2751;DHT22;1383;48.362;10.908;2022-12-17T18:39:48;-4.80;67.30